Pagrindinis puslapis
METAR-TAF:

METAR-TAF

Oro uostai :

Ørsta-Volda, Norvegija

platuma: 62-11N, ilguma: 006-04E, Aukštis: 7 m

Dabartinis oras

Ataskaita buvo paskelbta 29 minutes, ne 21:20 UTC
Vėjas 3 kt nuo kintamojo kryptimis
Temperatūra 12°C
Drėgmė 94%
Slėgis 1007 hPa
Matomumas 10 km arba daugiau
Mažai debesys ne aukštis 4500 ft
Su prošvaistėmis ne aukštis 6000 ft
lietus

METAR: ENOV 162120Z VRB03KT 9999 -RA FEW045 BKN060 12/11 Q1007 RMK WIND RWY 24 01004KT WIND 2090FT 16003KT

Laikas: 23:49 (21:49 UTC)

Prognozė

Ataskaita buvo paskelbta 7 valandos ir 49 minutes, ne 14:00 UTC
Prognozė galioja nuo 16 metu 15 UTC su 16 metu 22 UTC
Vėjas 5 kt nuo kintamojo kryptimis
Matomumas 10 km arba daugiau
Mažai debesys ne aukštis 4000 ft
Su prošvaistėmis ne aukštis 8000 ft
Laikinai
nuo 16 metu 15 UTC su 16 metu 22 UTC
Su prošvaistėmis ne aukštis 4000 ft, Liūtiniai kamuoliniai debesys.
lietus
Tikimybė 30% :
Laikinai
nuo 16 metu 15 UTC su 16 metu 18 UTC
perkūnija,

TAF: ENOV 161400Z 1615/1622 VRB05KT 9999 FEW040 BKN080 TEMPO 1615/1622 SHRA BKN040CB PROB30 TEMPO 1615/1618 TS

Orai ataskaitas ir orų prognozės (METAR, TAF).

turimą stotys yra geltonos ir raudonos taškus žemėlapyje.

Perkelti pele per norėdami pamatyti stoties vardą.

Tada spustelėkite, norėdami matyti oro stebėjimo ir prognozės.

Norėdami pakeisti žemėlapį: spustelėkite ant žalios mygtukų su juodo kryžiaus žemyn,; žalią mygtuką su brūkšneliu, jei norite nutolinti; arba žalių rodyklių gretimoms žemėlapius.


METAR-TAF: